Index Module Time&Date Lat. Long. Hardware Temperature Seawater Temperature Conductivity (µS/cm) Salinity (ppt) No. of Satellites Signal strength
244295 temperature3 15:00 27/05/2022 35.66013 139.67712 78.9 23.7 107.2 0.0 6.0 5
244294 temperature3 14:28 27/05/2022 35.65995 139.6773 423.6 23.2 202.1 0.0 6.0 5
244293 temperature3 13:58 27/05/2022 35.65999 139.6772 420.2 23.2 198.4 0.0 8.0 5
244292 temperature3 13:28 27/05/2022 35.66007 139.6771 402.1 301.6 256.9 0.0 8.0 5
244291 temperature3 11:51 27/05/2022 35.66018 139.67694 450.0 247.9 238.6 0.0 7.0 5
244290 temperature3 11:44 27/05/2022 35.66019 139.6771 457.3 242.0 227.9 0.0 7.0 5
244289 temperature3 11:28 27/05/2022 35.660385 139.6768 454.7 243.0 237.9 0.0 8.0 5
244288 temperature1 13:40 26/05/2022 35.65997 139.67693 459.4 213.7 224.4 0.0 4.0 5
244287 temperature3 18:36 24/05/2022 35.660625 139.67699 450.0 223.4 235.7 0.0 5.0 5
244286 temperature3 17:38 24/05/2022 35.660156 139.67712 460.4 219.0 228.0 0.0 6.0 5
244285 temperature3 13:38 24/05/2022 35.66035 139.67612 440.3 24.7 183.7 0.0 3.0 5
244284 temperature3 17:02 23/05/2022 35.660004 139.67699 470.6 171.2 217.0 0.0 5.0 5
244283 temperature1 15:06 21/05/2022 35.65997 139.67702 22.5 126.1 38.6 0.0 6.0 5
244282 temperature1 14:55 21/05/2022 35.660034 139.67699 25.5 -35.5 44.2 0.0 7.0 5
244281 temperature1 15:01 17/03/2022 35.279503 139.52592 240.5 14.9 179.8 0.0 12.0 5
244280 temperature1 14:58 17/03/2022 35.27947 139.52594 236.5 14.4 178.0 0.0 11.0 5
244279 temperature1 14:56 17/03/2022 35.279507 139.52594 215.3 14.4 162.5 0.0 11.0 5
244278 temperature1 14:53 17/03/2022 35.279514 139.52594 240.7 14.4 142.9 0.0 11.0 5
244277 temperature1 14:49 17/03/2022 35.27957 139.52596 229.2 15.5 134.3 0.0 11.0 5
244276 temperature1 14:34 17/03/2022 35.279522 139.52597 75.8 72.9 70.4 0.0 10.0 5
244275 temperature1 14:31 17/03/2022 35.28133 139.53024 74.8 71.9 69.6 0.0 11.0 5
244274 temperature1 14:28 17/03/2022 35.28563 139.53844 74.0 71.5 69.2 0.0 10.0 5
244273 temperature1 14:25 17/03/2022 35.288937 139.54681 73.3 69.0 66.7 0.0 10.0 5
244272 temperature1 14:23 17/03/2022 35.293938 139.55446 71.6 68.3 66.7 0.0 11.0 5
244271 temperature1 14:20 17/03/2022 35.29458 139.55669 71.8 68.5 66.9 0.0 10.0 5
244270 temperature1 14:17 17/03/2022 35.294533 139.55672 71.5 68.8 66.4 0.0 10.0 5
244269 temperature1 14:14 17/03/2022 35.294537 139.55678 75.1 72.4 69.6 0.0 10.0 5
244268 temperature1 14:11 17/03/2022 35.29426 139.55743 90.2 84.5 80.3 0.0 10.0 5
244267 temperature1 14:08 17/03/2022 35.294186 139.55748 80.2 77.2 73.7 0.0 11.0 5
244266 temperature1 14:06 17/03/2022 35.29621 139.55733 83.0 78.6 77.2 0.0 10.0 5
244265 temperature1 14:03 17/03/2022 35.298046 139.55754 82.4 81.2 76.9 0.0 10.0 5
244264 temperature1 13:54 17/03/2022 35.307056 139.55215 83.6 81.5 78.1 0.0 12.0 5
244263 temperature1 13:52 17/03/2022 35.314934 139.54947 84.5 82.4 78.9 0.0 10.0 5
244262 temperature1 13:48 17/03/2022 35.318916 139.55147 85.7 83.0 79.7 0.0 11.0 5
244261 temperature1 13:45 17/03/2022 35.31901 139.55098 82.7 79.6 78.0 0.0 11.0 5
244260 temperature1 13:42 17/03/2022 35.319054 139.55113 87.5 81.4 80.5 0.0 12.0 5
244259 temperature1 13:39 17/03/2022 35.318676 139.55115 84.7 82.5 78.9 0.0 12.0 5
244258 temperature1 13:36 17/03/2022 35.318954 139.55116 84.8 82.8 79.1 0.0 12.0 5
244257 temperature1 13:33 17/03/2022 35.318577 139.55096 84.6 82.2 78.9 0.0 11.0 5
244256 temperature1 13:30 17/03/2022 35.31858 139.55116 84.8 82.8 78.8 0.0 12.0 5
244255 temperature1 13:28 17/03/2022 35.318523 139.55109 84.7 82.5 78.7 0.0 11.0 5
244254 temperature1 13:25 17/03/2022 35.319397 139.55226 87.7 85.1 77.6 0.0 11.0 5
244253 temperature1 13:22 17/03/2022 35.319496 139.55244 75.9 72.2 78.3 0.0 11.0 5
244252 temperature1 13:19 17/03/2022 35.31875 139.55115 86.8 84.5 81.6 0.0 11.0 5
244251 temperature1 13:16 17/03/2022 35.31878 139.55011 84.3 80.7 80.0 0.0 5.0 5
244250 temperature1 13:08 17/03/2022 35.354424 139.532 85.3 82.8 79.6 0.0 8.0 5
244249 temperature1 13:05 17/03/2022 35.368652 139.52997 84.6 82.8 79.1 0.0 11.0 5
244248 temperature1 13:03 17/03/2022 35.400425 139.53499 84.8 82.6 79.1 0.0 9.0 5
244247 temperature1 13:00 17/03/2022 35.415695 139.5415 84.6 82.8 79.3 0.0 11.0 5
244246 temperature1 12:52 17/03/2022 35.453197 139.60857 83.3 81.9 77.6 0.0 11.0 5
244245 temperature1 12:49 17/03/2022 35.46648 139.62245 86.5 84.4 80.9 0.0 7.0 5
244244 temperature1 12:46 17/03/2022 35.488125 139.65628 86.4 84.3 80.9 0.0 11.0 5
244243 temperature1 12:43 17/03/2022 35.51917 139.68137 87.2 85.3 81.2 0.0 11.0 5
244242 temperature1 12:40 17/03/2022 35.574734 139.66338 87.6 85.3 81.9 0.0 0.0 5
244241 temperature1 12:38 17/03/2022 35.574734 139.66338 87.3 85.8 81.6 0.0 8.0 4
244240 temperature1 12:35 17/03/2022 35.586678 139.68867 88.0 85.9 82.3 0.0 11.0 5
244239 temperature1 12:32 17/03/2022 35.60219 139.72194 87.9 86.3 82.1 0.0 9.0 5
244238 temperature1 12:29 17/03/2022 35.614098 139.73232 88.1 86.3 82.3 0.0 9.0 5
244237 temperature1 12:26 17/03/2022 35.626995 139.72305 88.2 86.3 82.5 0.0 10.0 5
244236 temperature1 12:23 17/03/2022 35.657845 139.70157 88.6 86.8 82.6 0.0 0.0 5
244235 temperature1 12:21 17/03/2022 35.657845 139.70157 88.9 86.8 83.0 0.0 5.0 5
244234 temperature1 12:18 17/03/2022 35.673912 139.7037 89.0 86.9 83.0 0.0 8.0 5
244233 temperature1 12:15 17/03/2022 35.67166 139.69022 89.1 87.2 83.1 0.0 0.0 5
244232 temperature1 12:12 17/03/2022 35.67166 139.69022 89.2 87.2 83.3 0.0 0.0 5
244231 temperature1 12:09 17/03/2022 35.67166 139.69022 89.2 87.2 83.3 0.0 0.0 5
244230 temperature1 12:06 17/03/2022 35.67166 139.69022 96.3 90.2 90.1 0.0 0.0 5
244229 temperature1 12:03 17/03/2022 35.67166 139.69022 89.5 87.5 83.8 0.0 0.0 5
244228 temperature1 12:01 17/03/2022 35.67166 139.69022 89.7 87.7 84.0 0.0 6.0 5
244227 temperature1 11:58 17/03/2022 35.6693 139.68019 90.9 88.3 84.9 0.0 12.0 5
244226 temperature1 11:55 17/03/2022 35.668224 139.67923 89.5 87.5 81.8 0.0 11.0 5
244225 temperature1 11:52 17/03/2022 35.66626 139.67755 92.8 91.0 85.4 0.0 13.0 5
244224 temperature1 11:49 17/03/2022 35.66418 139.6777 93.0 89.5 87.1 0.0 12.0 5
244223 temperature1 11:46 17/03/2022 35.661568 139.6776 93.2 90.7 83.4 0.0 12.0 5
244222 temperature1 11:43 17/03/2022 35.66024 139.67714 83.3 87.0 83.4 0.0 11.0 5
244221 temperature1 11:41 17/03/2022 35.660088 139.67706 90.5 89.2 83.5 0.0 9.0 5
244220 temperature1 11:38 17/03/2022 35.66008 139.67711 90.3 83.0 86.6 0.0 10.0 5
244219 temperature1 11:35 17/03/2022 35.659893 139.67699 90.6 88.8 84.8 0.0 10.0 5
244218 temperature1 11:32 17/03/2022 35.660007 139.67712 91.1 89.1 85.0 0.0 10.0 5
244217 temperature1 11:29 17/03/2022 35.65989 139.67699 91.1 89.2 85.3 0.0 10.0 5
244216 temperature1 11:26 17/03/2022 35.66 139.67703 91.3 89.2 85.3 0.0 10.0 5
244215 temperature1 11:23 17/03/2022 35.659782 139.67697 91.4 89.3 85.3 0.0 9.0 5
244214 temperature1 11:21 17/03/2022 35.65967 139.67706 91.3 89.2 85.3 0.0 9.0 5
244213 temperature1 11:18 17/03/2022 35.660183 139.67714 91.2 89.5 85.3 0.0 8.0 5
244212 temperature1 11:15 17/03/2022 35.659534 139.6767 91.5 89.6 85.5 0.0 10.0 5
244211 temperature1 11:12 17/03/2022 35.660065 139.6772 91.4 89.5 85.5 0.0 10.0 5
244210 temperature1 11:09 17/03/2022 35.66003 139.67711 91.4 89.7 85.5 0.0 10.0 5
244209 temperature1 11:06 17/03/2022 35.660004 139.67715 91.5 89.7 85.5 0.0 9.0 5
244208 temperature1 11:03 17/03/2022 35.660065 139.67732 91.5 89.7 85.5 0.0 10.0 5
244207 temperature1 11:01 17/03/2022 35.660072 139.677 91.8 89.9 86.0 0.0 9.0 5
244206 temperature1 10:58 17/03/2022 35.66005 139.67728 91.6 89.7 85.8 0.0 9.0 5
244205 temperature1 10:55 17/03/2022 35.659958 139.67703 91.7 89.9 85.8 0.0 10.0 5
244204 temperature1 10:52 17/03/2022 35.66001 139.67717 91.7 89.9 85.8 0.0 11.0 5
244203 temperature1 10:49 17/03/2022 35.66001 139.67705 91.7 89.7 85.8 0.0 11.0 5
244202 temperature1 10:46 17/03/2022 35.65994 139.67703 91.4 89.7 85.5 0.0 10.0 5
244201 temperature1 10:43 17/03/2022 35.660004 139.67717 91.5 89.8 85.8 0.0 9.0 5
244200 temperature1 10:41 17/03/2022 35.66003 139.6771 91.9 90.1 86.0 0.0 9.0 5
244199 temperature1 10:38 17/03/2022 35.660004 139.67723 91.5 89.7 85.8 0.0 10.0 5
244198 temperature1 10:35 17/03/2022 35.660023 139.67708 91.5 89.7 85.8 0.0 12.0 5
244197 temperature1 10:32 17/03/2022 35.660072 139.67719 91.4 89.7 85.5 0.0 11.0 5
244196 temperature1 10:29 17/03/2022 35.66003 139.67705 91.4 89.7 85.5 0.0 11.0 5
244195 temperature1 10:26 17/03/2022 35.65999 139.67717 91.7 89.9 85.8 0.0 12.0 5
244194 temperature1 10:23 17/03/2022 35.660027 139.67726 91.6 89.8 85.8 0.0 10.0 5
244193 temperature1 10:21 17/03/2022 35.660053 139.67722 91.7 89.9 85.8 0.0 9.0 5
244192 temperature1 10:18 17/03/2022 35.660004 139.6774 92.0 90.2 86.0 0.0 9.0 5
244191 temperature1 10:15 17/03/2022 35.660088 139.6771 91.6 90.2 86.0 0.0 9.0 5
244190 temperature1 10:12 17/03/2022 35.659943 139.67712 91.7 90.2 86.0 0.0 11.0 5
244189 temperature1 10:09 17/03/2022 35.659946 139.67729 91.8 90.2 86.0 0.0 10.0 5
244188 temperature1 10:06 17/03/2022 35.660095 139.67723 92.0 90.3 86.3 0.0 9.0 5
244187 temperature1 10:04 17/03/2022 35.65992 139.67703 92.0 90.4 86.5 0.0 11.0 5
244186 temperature1 10:01 17/03/2022 35.66005 139.67715 92.2 90.9 86.7 0.0 8.0 5
244185 temperature1 09:58 17/03/2022 35.66 139.67711 92.4 91.3 86.9 0.0 7.0 5
244184 temperature1 09:55 17/03/2022 35.659996 139.67711 155.8 197.8 128.4 0.0 8.0 5
244183 temperature1 09:26 17/03/2022 35.659992 139.67717 132.3 198.0 111.7 0.0 8.0 5
244182 OMNI Bordeaux 23:57 16/03/2022 44.763988494873 -0.6205233335495 20.0 20.7 284.9 0.1 7.0 -119
244181 temperature1 21:03 16/03/2022 35.660095 139.67706 95.1 93.6 89.4 0.0 11.0 5
244180 temperature1 21:00 16/03/2022 35.66014 139.67694 94.3 92.8 88.5 0.0 10.0 5
244179 temperature1 20:58 16/03/2022 35.660076 139.67711 134.2 186.5 107.0 0.0 11.0 5
244178 temperature1 20:54 16/03/2022 35.660057 139.67703 95.4 94.2 89.9 0.0 11.0 5
244177 temperature1 20:51 16/03/2022 35.65991 139.6771 96.1 95.8 90.8 0.0 10.0 5
244176 temperature1 20:48 16/03/2022 35.65999 139.67706 139.9 215.8 121.5 0.0 10.0 5
244175 temperature1 20:44 16/03/2022 35.660004 139.6771 99.9 109.7 102.6 0.0 11.0 5
244174 temperature1 20:41 16/03/2022 35.659775 139.67703 99.9 109.7 102.7 0.0 10.0 5
244173 temperature1 20:38 16/03/2022 35.659946 139.67706 100.7 110.7 103.6 0.0 10.0 5
244172 temperature1 20:35 16/03/2022 35.65981 139.67719 100.7 110.7 103.7 0.0 10.0 5
244171 temperature1 20:33 16/03/2022 35.659992 139.67715 99.4 108.7 102.0 0.0 8.0 5
244170 temperature1 20:30 16/03/2022 35.660015 139.67715 98.3 106.8 100.5 0.0 9.0 5
244169 temperature1 20:27 16/03/2022 35.660072 139.67705 125.6 192.9 113.7 0.0 8.0 5
244168 temperature1 20:24 16/03/2022 35.66007 139.67719 102.4 112.7 104.9 0.0 8.0 5
244167 temperature1 20:22 16/03/2022 35.659954 139.67726 99.6 109.2 102.8 0.0 7.0 5
244166 temperature1 20:19 16/03/2022 35.66003 139.67708 99.9 108.3 102.1 0.0 8.0 5
244165 temperature1 20:16 16/03/2022 35.659897 139.67719 99.8 109.9 101.0 0.0 6.0 5
244164 temperature1 20:13 16/03/2022 35.659973 139.67714 99.3 108.7 100.9 0.0 7.0 5
244163 temperature1 20:11 16/03/2022 35.65998 139.67703 99.8 110.7 102.2 0.0 7.0 5
244162 temperature1 20:08 16/03/2022 35.65999 139.6772 102.2 113.5 103.0 0.0 7.0 5
244161 temperature1 20:05 16/03/2022 35.659897 139.67723 146.4 222.3 134.3 0.0 7.0 5
244160 temperature4 18:52 16/03/2022 35.660088 139.67705 132.0 187.8 104.0 0.0 8.0 5
244159 temperature4 18:33 16/03/2022 35.66002 139.67719 138.8 189.6 111.2 0.0 8.0 5
244158 temperature4 18:29 16/03/2022 35.660088 139.6769 128.1 182.2 101.3 0.0 6.0 5
244157 temperature4 18:19 16/03/2022 35.660095 139.67726 130.3 184.1 103.8 0.0 5.0 5
244156 temperature4 17:55 16/03/2022 35.660065 139.67758 127.4 189.5 104.9 0.0 3.0 5
244155 OMNI Bordeaux 19:19 15/03/2022 44.8264350891113 -0.64528501033783 18.8 12.9 509.2 0.2 8.0 -115
244154 OMNI Bordeaux 18:58 15/03/2022 44.8371696472168 -0.626929998397827 16.9 12.2 484.9 0.2 5.0 -108
244153 OMNI Bordeaux 18:26 15/03/2022 44.7990760803223 -0.625105023384094 17.5 12.5 558.8 0.3 6.0 -115
244152 OMNI Bordeaux 20:04 14/03/2022 44.8024368286133 -0.538471698760986 15.0 11.4 486.8 0.2 7.0 -112
244151 OMNI Bordeaux 19:36 14/03/2022 44.7950401306152 -0.549585044384003 14.2 13.1 0.0 0.0 7.0 -109
244150 OMNI Bordeaux 19:22 14/03/2022 44.7959861755371 -0.549786686897278 13.9 14.0 492.4 0.2 6.0 -108
244149 OMNI Bordeaux 19:02 14/03/2022 44.7951507568359 -0.554886639118195 12.3 11.1 304.8 0.1 5.0 -102
244148 OMNI Bordeaux 18:10 14/03/2022 44.794189453125 -0.593518316745758 11.2 11.6 192.6 0.1 4.0 -109
244147 OMNI Bordeaux 21:27 09/03/2022 44.8082504272461 -0.588135004043579 18.6 12.9 788.5 0.4 5.0 -116
244146 temperature3 14:37 25/02/2022 35.294575 139.5567 23.3 21.7 20.1 0.0 12.0 5
244145 temperature3 14:33 25/02/2022 35.294518 139.5568 15.0 13.0 14.0 0.0 12.0 5
244144 temperature3 06:28 25/02/2022 35.690678 139.56674 9.7 11.5 12.8 0.0 9.0 5
244143 temperature3 05:58 25/02/2022 35.69067 139.56676 10.1 12.0 13.2 0.0 10.0 5
244142 temperature3 05:28 25/02/2022 35.690727 139.56677 10.6 12.2 13.3 0.0 9.0 5
244141 temperature3 04:57 25/02/2022 35.69079 139.56657 10.6 12.5 13.8 0.0 8.0 5
244140 temperature3 04:27 25/02/2022 35.690662 139.56659 10.9 12.5 13.8 0.0 10.0 5
244139 temperature3 03:58 25/02/2022 35.69066 139.56677 11.1 12.9 14.2 0.0 10.0 5
244138 temperature3 03:28 25/02/2022 35.69078 139.56662 11.6 13.4 14.2 0.0 11.0 5
244137 temperature3 02:58 25/02/2022 35.690716 139.56657 12.1 13.6 14.7 0.0 10.0 5
244136 temperature3 02:28 25/02/2022 35.690746 139.5666 12.6 13.9 14.7 0.0 10.0 5
244135 temperature3 01:58 25/02/2022 35.69084 139.56664 12.6 14.4 15.2 0.0 11.0 5
244134 temperature3 00:57 25/02/2022 35.690754 139.56662 13.5 14.9 15.6 0.0 11.0 5
244133 temperature3 00:28 25/02/2022 35.690636 139.56665 13.5 14.9 15.7 0.0 8.0 5
244132 temperature3 23:58 24/02/2022 35.69068 139.56664 14.0 15.4 16.2 0.0 8.0 5
244131 temperature3 23:28 24/02/2022 35.690464 139.56683 14.5 15.4 16.7 0.0 8.0 5
244130 temperature3 22:58 24/02/2022 35.690693 139.56667 14.5 15.9 17.2 0.0 8.0 5
244129 temperature3 22:28 24/02/2022 35.690777 139.56662 15.1 16.4 17.5 0.0 8.0 5
244128 temperature3 21:58 24/02/2022 35.690742 139.5666 15.6 16.4 17.8 0.0 9.0 5
244127 temperature3 21:28 24/02/2022 35.690834 139.56659 16.5 16.9 18.2 0.0 8.0 5
244126 temperature3 20:58 24/02/2022 35.69072 139.56723 17.0 16.9 17.7 0.0 9.0 5
244125 temperature3 20:28 24/02/2022 35.69061 139.5667 17.9 16.9 18.5 0.0 6.0 5
244124 temperature3 19:58 24/02/2022 35.69061 139.5667 17.9 16.9 18.6 0.0 7.0 5
244123 temperature3 19:28 24/02/2022 35.69066 139.56668 17.4 16.9 18.2 0.0 10.0 5
244122 temperature3 18:58 24/02/2022 35.69073 139.56664 17.4 17.1 17.7 0.0 9.0 5
244121 temperature3 18:28 24/02/2022 35.69063 139.56659 17.6 17.3 17.7 0.0 9.0 5
244120 temperature3 17:59 24/02/2022 35.690613 139.56667 17.5 17.3 18.2 0.0 9.0 5
244119 temperature3 17:29 24/02/2022 35.690666 139.56662 14.5 14.9 17.2 0.0 9.0 5
244118 temperature3 15:55 24/02/2022 35.664097 139.67734 16.0 11.2 16.1 0.0 8.0 5
244117 temperature3 15:26 24/02/2022 35.660107 139.67706 16.5 15.9 16.7 0.0 10.0 5
244116 temperature3 14:56 24/02/2022 35.660126 139.67717 16.9 16.9 17.2 0.0 9.0 5
244115 temperature3 14:02 24/02/2022 35.660015 139.67726 17.7 16.9 19.8 0.0 9.0 5
244114 temperature3 13:39 24/02/2022 35.660027 139.67726 19.1 16.9 16.9 0.0 8.0 5
244113 temperature3 13:09 24/02/2022 35.660057 139.67717 20.2 17.8 17.6 0.0 9.0 5
244112 temperature3 12:39 24/02/2022 35.659893 139.67714 23.0 18.9 18.7 0.0 9.0 5
244111 temperature3 11:37 24/02/2022 35.66001 139.67735 34.8 34.0 31.2 0.0 6.0 5
244110 temperature3 11:07 24/02/2022 35.65992 139.67715 24.0 32.5 30.1 0.0 6.0 5
244109 temperature3 10:37 24/02/2022 35.660114 139.67703 25.5 26.6 24.3 0.0 5.0 5
244108 temperature3 10:07 24/02/2022 35.660046 139.67712 15.7 21.0 19.9 0.0 8.0 5
244107 temperature3 09:38 24/02/2022 35.660004 139.67706 14.2 12.9 12.5 0.0 8.0 5
244106 temperature3 09:08 24/02/2022 35.66018 139.67702 14.7 13.4 13.0 0.0 5.0 5
244105 temperature3 08:38 24/02/2022 35.660267 139.67683 13.8 12.0 12.1 0.0 7.0 5
244104 temperature3 07:36 24/02/2022 35.659866 139.67737 12.8 11.0 11.1 0.0 5.0 5
244103 temperature3 07:06 24/02/2022 35.660084 139.67706 12.5 11.0 11.1 0.0 7.0 5
244102 temperature3 06:35 24/02/2022 35.66008 139.67706 12.3 11.0 11.1 0.0 6.0 5
244101 temperature3 06:05 24/02/2022 35.65998 139.67711 12.5 11.0 11.1 0.0 6.0 5
244100 temperature3 05:36 24/02/2022 35.659763 139.67734 12.5 11.0 11.1 0.0 5.0 5
244099 temperature3 05:06 24/02/2022 35.660015 139.67752 12.7 11.0 11.1 0.0 5.0 5
244098 temperature3 04:36 24/02/2022 35.660168 139.67712 12.8 11.0 11.1 0.0 5.0 5
244097 temperature3 04:06 24/02/2022 35.65999 139.67714 12.8 11.0 11.1 0.0 4.0 5
244096 temperature3 03:36 24/02/2022 35.65999 139.67714 12.8 11.0 11.1 0.0 6.0 5
244095 temperature3 03:06 24/02/2022 35.659912 139.67725 12.8 11.2 11.1 0.0 6.0 5
244094 temperature3 02:37 24/02/2022 35.659924 139.67715 12.8 11.4 11.5 0.0 8.0 5
244093 temperature3 02:07 24/02/2022 35.659977 139.67708 12.8 11.5 11.6 0.0 6.0 5
244092 temperature3 01:37 24/02/2022 35.65992 139.67697 12.9 11.5 11.6 0.0 6.0 5
244091 temperature3 01:07 24/02/2022 35.660294 139.67706 12.9 11.5 11.6 0.0 5.0 5
244090 temperature3 00:37 24/02/2022 35.660355 139.67719 13.0 11.5 11.6 0.0 5.0 5
244089 temperature3 00:07 24/02/2022 35.66009 139.67711 13.2 11.5 11.6 0.0 7.0 5
244088 temperature3 23:37 23/02/2022 35.659878 139.67729 13.3 11.5 11.6 0.0 6.0 5
244087 temperature3 23:07 23/02/2022 35.66008 139.67706 13.3 11.5 11.6 0.0 7.0 5
244086 temperature3 22:37 23/02/2022 35.66007 139.67728 13.3 11.5 11.6 0.0 7.0 5
244085 temperature3 22:08 23/02/2022 35.65983 139.67723 13.3 11.7 12.0 0.0 6.0 5
244084 temperature3 21:38 23/02/2022 35.660133 139.67715 13.3 11.9 12.1 0.0 6.0 5
244083 temperature3 21:08 23/02/2022 35.660122 139.67712 13.6 12.0 12.1 0.0 6.0 5
244082 temperature3 20:38 23/02/2022 35.660084 139.67703 13.7 12.0 12.1 0.0 6.0 5
244081 temperature3 20:08 23/02/2022 35.659985 139.67717 13.7 12.0 12.1 0.0 5.0 5
244080 temperature3 19:38 23/02/2022 35.65974 139.67715 13.7 12.4 12.5 0.0 6.0 5
244079 temperature3 19:08 23/02/2022 35.65981 139.67685 14.2 12.5 12.5 0.0 6.0 5
244078 temperature3 18:38 23/02/2022 35.65981 139.67685 14.2 12.5 12.5 0.0 6.0 5
244077 temperature3 18:09 23/02/2022 35.65992 139.67706 14.2 12.7 12.7 0.0 6.0 5
244076 temperature3 17:39 23/02/2022 35.65992 139.67706 14.7 12.9 13.0 0.0 6.0 5
244075 temperature3 17:09 23/02/2022 35.65992 139.67706 14.8 12.9 13.0 0.0 5.0 5
244074 temperature3 16:39 23/02/2022 35.65992 139.67706 15.2 13.4 13.5 0.0 7.0 5
244073 temperature3 16:09 23/02/2022 35.660213 139.67708 16.2 14.4 14.0 0.0 6.0 5
244072 temperature3 15:39 23/02/2022 35.660213 139.67708 17.2 15.4 15.0 0.0 7.0 5
244071 temperature3 15:09 23/02/2022 35.659935 139.67705 18.1 16.4 16.1 0.0 8.0 5
244070 temperature3 14:39 23/02/2022 35.66007 139.67708 19.6 17.3 17.1 0.0 9.0 5
244069 temperature3 14:09 23/02/2022 35.660275 139.67708 19.1 17.3 16.9 0.0 7.0 5
244068 temperature3 13:39 23/02/2022 35.660336 139.6772 19.6 17.4 17.4 0.0 8.0 5
244067 temperature3 13:09 23/02/2022 35.6603 139.67699 21.1 18.3 17.9 0.0 8.0 5
244066 temperature3 12:39 23/02/2022 35.66008 139.67715 24.0 19.3 18.4 0.0 9.0 5
244065 temperature3 12:09 23/02/2022 35.660126 139.67738 39.7 22.7 21.8 0.0 9.0 5
244064 temperature3 11:38 23/02/2022 35.660053 139.67754 36.2 34.5 31.4 0.0 7.0 5
244063 temperature3 11:08 23/02/2022 35.660053 139.67754 25.5 33.0 30.1 0.0 6.0 5
244062 temperature3 10:38 23/02/2022 35.66027 139.67726 27.4 28.3 25.6 0.0 7.0 5
244061 temperature3 10:08 23/02/2022 35.66011 139.6774 16.7 23.7 21.8 0.0 8.0 5
244060 temperature3 09:38 23/02/2022 35.659824 139.67735 16.5 14.9 14.5 0.0 7.0 5
244059 temperature3 09:08 23/02/2022 35.660053 139.67728 14.7 13.9 13.5 0.0 8.0 5
244058 temperature3 08:39 23/02/2022 35.659992 139.67708 14.7 12.5 12.5 0.0 7.0 5
244057 temperature3 08:09 23/02/2022 35.659786 139.67754 14.2 12.5 12.2 0.0 8.0 5
244056 temperature3 07:39 23/02/2022 35.65996 139.67729 13.7 12.1 12.1 0.0 4.0 5
244055 temperature3 07:09 23/02/2022 35.65996 139.67729 13.7 12.0 12.1 0.0 8.0 5
244054 temperature3 06:39 23/02/2022 35.659714 139.67708 13.3 11.5 11.6 0.0 7.0 5
244053 temperature3 06:09 23/02/2022 35.659855 139.67711 13.3 11.5 11.6 0.0 7.0 5
244052 temperature3 05:39 23/02/2022 35.66012 139.67722 13.3 11.9 12.0 0.0 6.0 5
244051 temperature3 05:09 23/02/2022 35.659973 139.6772 13.3 12.0 12.1 0.0 4.0 5
244050 temperature3 04:39 23/02/2022 35.660206 139.67738 13.7 12.0 12.1 0.0 6.0 5
244049 temperature3 04:09 23/02/2022 35.66044 139.67728 13.7 12.0 12.1 0.0 7.0 5
244048 temperature3 03:39 23/02/2022 35.66007 139.67715 13.7 12.5 12.1 0.0 7.0 5
244047 temperature3 03:10 23/02/2022 35.660004 139.67732 14.0 12.5 12.5 0.0 7.0 5
244046 temperature3 02:40 23/02/2022 35.66004 139.67699 14.2 12.5 12.5 0.0 10.0 5
244045 temperature3 02:09 23/02/2022 35.660133 139.67711 14.2 12.9 12.5 0.0 8.0 5
244044 temperature3 01:39 23/02/2022 35.659985 139.67708 14.7 12.9 13.0 0.0 7.0 5
244043 temperature3 01:09 23/02/2022 35.65999 139.67708 14.7 13.2 13.1 0.0 9.0 5
244042 temperature3 00:39 23/02/2022 35.660004 139.67723 15.1 13.4 13.5 0.0 9.0 5
244041 temperature3 00:10 23/02/2022 35.660038 139.67705 15.2 13.6 13.5 0.0 10.0 5
244040 temperature3 23:40 22/02/2022 35.65995 139.6773 15.5 13.9 14.0 0.0 11.0 5
244039 temperature3 23:10 22/02/2022 35.66001 139.6775 15.7 14.4 14.1 0.0 9.0 5
244038 temperature3 22:40 22/02/2022 35.65995 139.67708 16.2 14.4 14.5 0.0 7.0 5
244037 temperature3 22:10 22/02/2022 35.659973 139.67737 16.2 14.9 15.0 0.0 10.0 5
244036 temperature3 21:40 22/02/2022 35.660145 139.67699 16.7 15.4 15.5 0.0 7.0 5
244035 temperature3 21:09 22/02/2022 35.659897 139.6773 17.2 15.9 16.0 0.0 8.0 5
244034 temperature3 20:39 22/02/2022 35.66007 139.67726 17.2 15.9 16.0 0.0 9.0 5
244033 temperature3 20:09 22/02/2022 35.66003 139.67719 16.7 15.4 15.5 0.0 8.0 5
244032 temperature3 19:39 22/02/2022 35.659653 139.67717 16.7 15.2 15.0 0.0 4.0 5
244031 temperature3 19:09 22/02/2022 35.660297 139.67694 16.9 15.4 15.5 0.0 5.0 5
244030 temperature3 18:39 22/02/2022 35.660126 139.67699 17.2 15.9 15.9 0.0 6.0 5
244029 temperature3 18:09 22/02/2022 35.660114 139.67726 18.1 15.9 16.0 0.0 8.0 5
244028 temperature3 17:39 22/02/2022 35.660114 139.67726 17.7 15.9 16.0 0.0 6.0 5
244027 temperature3 17:09 22/02/2022 35.660114 139.67726 17.7 16.1 16.0 0.0 5.0 5
244026 temperature3 16:39 22/02/2022 35.660114 139.67726 18.1 16.9 16.9 0.0 7.0 5
244025 temperature3 16:09 22/02/2022 35.660183 139.67734 19.6 18.3 17.9 0.0 8.0 5
244024 temperature3 15:39 22/02/2022 35.65995 139.67717 20.6 20.3 19.9 0.0 9.0 5
244023 temperature3 15:09 22/02/2022 35.660152 139.67708 20.1 19.6 18.9 0.0 10.0 5
244022 temperature3 14:39 22/02/2022 35.660107 139.67729 19.6 18.8 18.5 0.0 11.0 5
244021 temperature3 14:09 22/02/2022 35.65996 139.67726 19.7 18.8 18.4 0.0 11.0 5
244020 temperature3 13:39 22/02/2022 35.659996 139.67711 19.6 18.8 18.4 0.0 12.0 5
244019 temperature3 13:09 22/02/2022 35.660072 139.67712 20.1 18.8 18.4 0.0 9.0 5
244018 temperature3 12:39 22/02/2022 35.65992 139.67725 20.6 19.3 18.9 0.0 10.0 5
244017 temperature3 12:09 22/02/2022 35.660095 139.6772 22.1 22.7 21.8 0.0 10.0 5
244016 temperature3 11:40 22/02/2022 35.660107 139.6771 29.9 32.3 29.2 0.0 7.0 5
244015 temperature3 10:39 22/02/2022 35.660156 139.67719 27.4 27.6 24.9 0.0 6.0 5
244014 temperature3 10:08 22/02/2022 35.66011 139.67755 24.0 22.7 20.9 0.0 8.0 5
244013 temperature3 09:38 22/02/2022 35.660046 139.67743 14.3 13.9 13.5 0.0 9.0 5
244012 temperature3 09:08 22/02/2022 35.66007 139.67732 13.3 12.5 12.1 0.0 9.0 5
244011 temperature3 08:06 22/02/2022 35.65998 139.67723 12.8 10.9 10.6 0.0 7.0 5
244010 temperature3 07:36 22/02/2022 35.660137 139.67747 12.3 10.5 10.6 0.0 6.0 5
244009 temperature3 07:06 22/02/2022 35.65986 139.67697 12.1 10.2 10.5 0.0 7.0 5
244008 temperature3 06:36 22/02/2022 35.65986 139.67697 11.8 10.0 10.1 0.0 2.0 5
244007 temperature3 06:06 22/02/2022 35.659996 139.67714 11.8 10.0 10.1 0.0 6.0 5
244006 temperature3 05:37 22/02/2022 35.660088 139.6774 11.8 10.0 10.1 0.0 6.0 5
244005 temperature3 05:07 22/02/2022 35.66008 139.67734 11.8 10.0 10.1 0.0 2.0 5
244004 temperature3 04:37 22/02/2022 35.66008 139.67734 11.8 10.0 10.1 0.0 6.0 5
244003 temperature3 04:07 22/02/2022 35.659946 139.67725 12.2 10.4 10.1 0.0 6.0 5
244002 temperature3 03:37 22/02/2022 35.659943 139.67702 12.2 10.4 10.2 0.0 2.0 5
244001 temperature3 03:07 22/02/2022 35.659943 139.67702 12.3 10.5 10.6 0.0 2.0 5
244000 temperature3 02:37 22/02/2022 35.659943 139.67702 12.3 10.5 10.6 0.0 6.0 5
243999 temperature3 02:07 22/02/2022 35.659943 139.67702 12.3 10.5 10.6 0.0 2.0 5
243998 temperature3 01:37 22/02/2022 35.659943 139.67702 12.3 10.5 10.6 0.0 2.0 5
243997 temperature3 01:07 22/02/2022 35.659943 139.67702 12.6 10.6 10.6 0.0 5.0 5
243996 temperature3 00:38 22/02/2022 35.660057 139.67712 12.8 11.0 11.1 0.0 6.0 5
243995 temperature3 00:08 22/02/2022 35.659973 139.67706 12.8 11.0 11.1 0.0 8.0 5
243994 temperature3 23:38 21/02/2022 35.660038 139.67723 12.8 11.0 11.1 0.0 10.0 5
243993 temperature3 23:07 21/02/2022 35.660095 139.67696 12.8 11.0 11.1 0.0 9.0 5
243992 temperature3 22:36 21/02/2022 35.65991 139.67706 13.3 11.5 11.6 0.0 10.0 5
243991 temperature3 22:06 21/02/2022 35.66 139.67708 13.3 11.5 11.6 0.0 10.0 5
243990 temperature3 21:36 21/02/2022 35.660007 139.67711 13.3 11.5 11.6 0.0 6.0 5
243989 temperature3 21:06 21/02/2022 35.65996 139.67706 13.7 12.0 12.1 0.0 8.0 5
243988 temperature3 20:36 21/02/2022 35.659973 139.6771 13.7 12.0 12.1 0.0 8.0 5
243987 temperature3 20:06 21/02/2022 35.660046 139.6772 13.7 12.0 12.1 0.0 8.0 5
243986 temperature3 19:36 21/02/2022 35.66024 139.67712 13.7 12.0 12.1 0.0 6.0 5
243985 temperature3 19:06 21/02/2022 35.660275 139.67668 13.8 12.1 12.1 0.0 6.0 5
243984 temperature3 18:36 21/02/2022 35.660217 139.67725 13.9 12.4 12.3 0.0 6.0 5
243983 temperature3 18:06 21/02/2022 35.66015 139.67722 14.2 12.5 12.5 0.0 8.0 5
243982 temperature3 17:36 21/02/2022 35.660122 139.677 14.6 12.9 13.0 0.0 7.0 5
243981 temperature3 17:06 21/02/2022 35.660122 139.677 15.2 13.9 13.5 0.0 6.0 5
243980 temperature3 16:36 21/02/2022 35.660122 139.677 16.2 15.4 15.0 0.0 6.0 5
243979 temperature3 15:34 21/02/2022 35.65994 139.67706 19.6 21.3 19.9 0.0 6.0 5
243978 temperature3 15:04 21/02/2022 35.659973 139.6772 21.1 19.6 18.4 0.0 8.0 5
243977 temperature3 14:34 21/02/2022 35.659973 139.6772 18.4 17.8 17.9 0.0 10.0 5
243976 temperature3 14:04 21/02/2022 35.65994 139.67735 18.1 17.3 16.9 0.0 10.0 5
243975 temperature3 13:34 21/02/2022 35.659782 139.677 18.5 17.3 16.9 0.0 10.0 5
243974 temperature3 13:04 21/02/2022 35.660393 139.67746 18.6 18.3 17.9 0.0 9.0 5
243973 temperature3 12:34 21/02/2022 35.66007 139.67705 19.6 19.8 19.4 0.0 9.0 5
243972 temperature3 12:04 21/02/2022 35.66006 139.67711 23.4 24.2 23.3 0.0 11.0 5
243971 temperature3 11:34 21/02/2022 35.660038 139.67711 30.4 33.0 30.6 0.0 7.0 5
243970 temperature3 11:04 21/02/2022 35.660027 139.6771 28.9 30.5 27.3 0.0 8.0 5
243969 temperature3 10:34 21/02/2022 35.659966 139.6771 27.4 28.1 25.3 0.0 7.0 5
243968 temperature3 10:04 21/02/2022 35.65983 139.67705 22.1 22.2 20.4 0.0 9.0 5
243967 temperature3 09:34 21/02/2022 35.65985 139.67743 14.7 13.9 13.5 0.0 7.0 5
243966 temperature3 15:32 20/02/2022 35.660084 139.67711 13.7 12.0 12.5 0.0 10.0 5
243965 temperature3 14:46 20/02/2022 35.659973 139.67726 13.7 12.0 12.5 0.0 9.0 5
243964 temperature3 07:43 20/02/2022 35.660183 139.67697 13.3 11.5 12.5 0.0 6.0 5
243963 temperature3 23:50 19/02/2022 35.66003 139.67728 13.7 12.0 29.2 0.0 12.0 5
243962 temperature3 23:20 19/02/2022 35.659946 139.67719 13.7 12.0 31.3 0.0 8.0 5
243961 temperature3 22:51 19/02/2022 35.659897 139.67725 14.2 12.5 33.9 0.0 10.0 5
243960 temperature3 22:21 19/02/2022 35.65997 139.6773 14.2 12.5 36.2 0.0 8.0 5
243959 temperature3 21:51 19/02/2022 35.65998 139.67711 14.2 12.5 39.1 0.0 8.0 5
243958 temperature3 21:21 19/02/2022 35.659927 139.67729 14.7 12.7 40.2 0.0 9.0 5
243957 temperature3 20:51 19/02/2022 35.65999 139.67732 14.7 12.9 43.0 0.0 9.0 5
243956 temperature3 20:21 19/02/2022 35.660126 139.67732 14.7 12.9 47.3 0.0 8.0 5
243955 temperature3 19:51 19/02/2022 35.660114 139.6771 15.2 13.4 56.0 0.0 9.0 5
243954 temperature3 19:21 19/02/2022 35.660225 139.67703 15.2 13.4 85.2 0.0 6.0 5
243953 temperature3 18:51 19/02/2022 35.66017 139.67714 15.4 13.4 86.8 0.0 9.0 5
243952 temperature3 18:22 19/02/2022 35.660194 139.67719 15.7 13.9 88.3 0.0 11.0 5
243951 temperature3 17:52 19/02/2022 35.65999 139.67722 15.7 13.9 88.9 0.0 10.0 5
243950 temperature3 17:22 19/02/2022 35.660038 139.67717 16.2 14.4 90.3 0.0 8.0 5
243949 temperature3 16:52 19/02/2022 35.66008 139.6773 16.2 14.4 90.3 0.0 10.0 5
243948 temperature3 16:22 19/02/2022 35.660305 139.67712 15.7 13.9 89.7 0.0 9.0 5
243947 temperature3 15:52 19/02/2022 35.66051 139.67728 15.7 13.5 90.3 0.0 9.0 5
243946 temperature3 15:22 19/02/2022 35.6605 139.67723 15.2 13.4 89.3 0.0 9.0 5
243945 temperature3 14:52 19/02/2022 35.660152 139.67734 15.2 13.4 89.6 0.0 8.0 5
243944 temperature3 14:23 19/02/2022 35.66016 139.67737 15.2 13.4 90.5 0.0 6.0 5
243943 temperature3 13:53 19/02/2022 35.66015 139.6774 15.7 14.0 91.9 0.0 9.0 5
243942 temperature3 13:23 19/02/2022 35.660236 139.67767 16.7 15.4 88.2 0.0 8.0 5
243941 temperature3 12:53 19/02/2022 35.659935 139.67749 16.7 15.6 89.0 0.0 7.0 5
243940 temperature3 11:51 19/02/2022 35.660137 139.67746 18.4 17.8 92.9 0.0 6.0 5
243939 temperature3 11:21 19/02/2022 35.660305 139.67714 17.2 16.4 91.1 0.0 6.0 5
243938 temperature3 10:19 19/02/2022 35.659935 139.67729 16.2 14.9 74.4 0.0 8.0 5
243937 temperature3 09:49 19/02/2022 35.66021 139.67708 14.7 12.9 67.5 0.0 9.0 5
243936 temperature3 09:19 19/02/2022 35.66021 139.67708 14.2 12.9 66.8 0.0 9.0 5
243935 temperature3 08:49 19/02/2022 35.659893 139.67728 14.5 12.9 66.6 0.0 12.0 5
243934 temperature3 08:19 19/02/2022 35.659885 139.67734 14.2 12.5 66.0 0.0 10.0 5
243933 temperature3 07:49 19/02/2022 35.659832 139.67735 14.2 12.5 64.9 0.0 8.0 5
243932 temperature3 07:19 19/02/2022 35.659832 139.67717 14.2 12.5 64.5 0.0 8.0 5
243931 temperature3 06:49 19/02/2022 35.659958 139.67712 14.2 12.5 64.0 0.0 9.0 5
243930 temperature3 06:19 19/02/2022 35.659992 139.67711 14.2 12.5 63.6 0.0 7.0 5
243929 temperature3 05:49 19/02/2022 35.66011 139.67723 14.2 12.5 63.7 0.0 8.0 5
243928 temperature3 05:19 19/02/2022 35.660213 139.67703 14.2 12.5 62.9 0.0 7.0 5
243927 temperature3 04:49 19/02/2022 35.660114 139.67722 14.3 12.6 61.8 0.0 10.0 5
243926 temperature3 04:19 19/02/2022 35.6601 139.6772 14.4 12.8 61.0 0.0 10.0 5
243925 temperature3 03:50 19/02/2022 35.659943 139.67723 14.7 12.9 60.2 0.0 10.0 5
243924 temperature3 03:20 19/02/2022 35.66018 139.67719 14.7 12.9 59.5 0.0 9.0 5
243923 temperature3 02:50 19/02/2022 35.660027 139.67719 14.7 13.1 58.3 0.0 8.0 5
243922 temperature3 02:20 19/02/2022 35.660015 139.6771 15.2 13.4 58.3 0.0 9.0 5
243921 temperature3 01:18 19/02/2022 35.66001 139.67703 15.3 13.4 63.3 0.0 10.0 5
243920 temperature3 00:48 19/02/2022 35.660015 139.67717 15.7 13.9 89.7 0.0 10.0 5
243919 temperature3 00:18 19/02/2022 35.660027 139.67714 15.7 13.9 84.5 0.0 10.0 5
243918 temperature3 23:48 18/02/2022 35.660053 139.6771 16.2 14.4 85.4 0.0 7.0 5
243917 temperature3 23:18 18/02/2022 35.659927 139.67708 16.2 14.4 85.9 0.0 7.0 5
243916 temperature3 22:48 18/02/2022 35.659927 139.67708 16.7 14.9 85.9 0.0 9.0 5
243915 temperature3 22:19 18/02/2022 35.659996 139.67719 16.7 14.9 86.8 0.0 10.0 5
243914 temperature3 21:49 18/02/2022 35.66 139.67712 17.2 15.4 87.9 0.0 10.0 5
243913 temperature3 21:19 18/02/2022 35.65991 139.67711 17.7 15.9 95.6 0.0 7.0 5
243912 temperature3 20:49 18/02/2022 35.659966 139.67725 18.1 16.4 96.7 0.0 8.0 5
243911 temperature3 20:19 18/02/2022 35.66013 139.67714 18.6 16.9 98.5 0.0 9.0 5
243910 temperature3 19:49 18/02/2022 35.65997 139.67706 19.1 17.3 99.5 0.0 9.0 5
243909 temperature3 19:19 18/02/2022 35.660007 139.67728 18.7 16.9 99.5 0.0 9.0 5
243908 temperature1 19:18 18/02/2022 0.0 0.0 117.3 89.7 116.7 0.0 0.0 3
243907 temperature3 18:49 18/02/2022 35.660023 139.67722 18.6 16.8 99.8 0.0 9.0 5
243906 temperature3 17:47 18/02/2022 35.660007 139.67723 18.1 16.4 100.7 0.0 8.0 5
243905 temperature3 17:17 18/02/2022 35.66011 139.67717 17.2 15.7 99.8 0.0 9.0 5
243904 temperature3 16:47 18/02/2022 35.66027 139.6772 18.0 16.9 101.8 0.0 8.0 5
243903 temperature3 15:45 18/02/2022 35.66074 139.67703 21.1 22.7 108.9 0.0 8.0 5
243902 temperature3 15:14 18/02/2022 35.66047 139.67729 22.1 20.9 107.2 0.0 6.0 5
243901 temperature3 14:44 18/02/2022 35.66 139.6772 18.7 16.4 101.8 0.0 6.0 5
243900 temperature3 13:41 18/02/2022 35.660072 139.67711 21.6 19.8 106.0 0.0 9.0 5
243899 temperature3 13:11 18/02/2022 35.660183 139.67706 22.5 20.8 107.3 0.0 8.0 5
243898 temperature3 12:41 18/02/2022 35.659954 139.67743 23.8 21.9 108.6 0.0 8.0 5
243897 temperature3 12:11 18/02/2022 35.660076 139.6771 25.2 23.4 110.6 0.0 7.0 5
243896 temperature3 11:41 18/02/2022 35.660213 139.67715 26.8 25.2 111.6 0.0 9.0 5
243895 temperature3 10:09 18/02/2022 35.66018 139.67723 19.6 17.5 101.5 0.0 9.0 5
243894 temperature3 07:30 18/02/2022 35.660286 139.67744 13.7 12.0 90.8 0.0 7.0 5
243893 temperature3 07:00 18/02/2022 35.659897 139.67714 13.7 12.0 90.1 0.0 8.0 5
243892 temperature3 06:30 18/02/2022 35.660393 139.67717 13.7 12.0 89.7 0.0 6.0 5
243891 temperature3 06:00 18/02/2022 35.659866 139.67726 13.7 12.0 89.4 0.0 9.0 5
243890 temperature3 05:30 18/02/2022 35.660034 139.67737 13.7 12.0 89.3 0.0 6.0 5
243889 temperature3 05:00 18/02/2022 35.66012 139.6772 13.9 12.2 89.7 0.0 8.0 5
243888 temperature3 04:31 18/02/2022 35.660107 139.67717 14.2 12.5 89.3 0.0 8.0 5
243887 temperature3 04:01 18/02/2022 35.660458 139.67708 14.2 12.5 89.2 0.0 9.0 5
243886 temperature3 03:29 18/02/2022 35.660206 139.67708 14.2 12.5 89.5 0.0 8.0 5
243885 temperature3 03:00 18/02/2022 35.660023 139.67705 14.6 12.9 89.5 0.0 10.0 5
243884 temperature3 02:29 18/02/2022 35.65999 139.6771 14.7 12.9 89.3 0.0 9.0 5
243883 temperature3 01:59 18/02/2022 35.659912 139.67725 14.7 12.9 89.5 0.0 7.0 5
243882 temperature3 01:29 18/02/2022 35.660297 139.677 15.2 13.4 89.5 0.0 7.0 5
243881 temperature3 00:59 18/02/2022 35.659912 139.67717 15.2 13.4 89.4 0.0 11.0 5
243880 temperature3 00:29 18/02/2022 35.66 139.67719 15.5 13.5 89.3 0.0 11.0 5
243879 temperature3 23:59 17/02/2022 35.65992 139.6771 15.7 13.9 89.0 0.0 9.0 5
243878 temperature3 23:30 17/02/2022 35.66005 139.67708 15.7 13.9 88.8 0.0 7.0 5
243877 temperature3 23:00 17/02/2022 35.65987 139.67697 16.2 14.4 89.0 0.0 6.0 5
243876 temperature3 22:30 17/02/2022 35.66007 139.67715 16.2 14.4 89.9 0.0 10.0 5
243875 temperature3 22:00 17/02/2022 35.659897 139.67719 16.7 14.9 90.3 0.0 7.0 5
243874 temperature3 21:30 17/02/2022 35.660065 139.67715 16.7 14.9 90.5 0.0 9.0 5
243873 temperature3 21:00 17/02/2022 35.66008 139.67726 17.2 15.4 91.4 0.0 9.0 5
243872 temperature3 20:30 17/02/2022 35.660202 139.67732 17.2 15.4 91.4 0.0 7.0 5
243871 temperature3 20:01 17/02/2022 35.660095 139.677 17.3 15.4 91.8 0.0 8.0 5
243870 temperature3 19:30 17/02/2022 35.66001 139.67708 17.3 15.4 91.7 0.0 8.0 5
243869 temperature3 19:00 17/02/2022 35.660267 139.67726 17.2 15.4 91.3 0.0 7.0 5
243868 temperature3 18:30 17/02/2022 35.660267 139.67726 17.7 15.6 89.1 0.0 7.0 5
243867 temperature3 18:00 17/02/2022 35.660267 139.67726 17.7 15.9 88.6 0.0 9.0 5
243866 temperature3 17:30 17/02/2022 35.660267 139.67726 18.6 16.7 88.7 0.0 6.0 5
243865 temperature3 17:00 17/02/2022 35.659874 139.67715 19.6 17.7 89.4 0.0 6.0 5
243864 temperature3 16:31 17/02/2022 35.659904 139.67744 21.1 19.3 90.6 0.0 8.0 5
243863 temperature3 15:59 17/02/2022 35.659904 139.67744 22.1 20.3 92.3 0.0 8.0 5
243862 temperature3 15:29 17/02/2022 35.659943 139.67715 22.5 20.8 91.7 0.0 7.0 5
243861 temperature3 14:58 17/02/2022 35.659943 139.67715 20.6 18.8 88.7 0.0 10.0 5
243860 temperature3 13:55 17/02/2022 35.66037 139.67719 19.6 17.8 83.0 0.0 7.0 5
243859 temperature3 13:25 17/02/2022 35.659874 139.67741 20.6 18.8 84.9 0.0 9.0 5
243858 temperature3 12:55 17/02/2022 35.65998 139.6773 21.8 20.2 86.4 0.0 9.0 5
243857 temperature3 12:25 17/02/2022 35.65978 139.67755 23.0 21.3 89.1 0.0 9.0 5
243856 temperature3 11:55 17/02/2022 35.659958 139.67773 24.5 22.7 98.2 0.0 6.0 5
243855 temperature3 11:24 17/02/2022 35.660133 139.67714 19.1 20.3 97.8 0.0 8.0 5
243854 temperature3 10:54 17/02/2022 35.660133 139.67714 18.1 20.4 95.9 0.0 8.0 5
243853 temperature3 10:24 17/02/2022 35.66 139.67749 17.7 20.3 82.8 0.0 9.0 5
243852 temperature3 09:54 17/02/2022 35.65988 139.67747 16.7 16.4 63.3 0.0 11.0 5
243851 temperature3 09:23 17/02/2022 35.65983 139.67738 16.2 12.2 59.9 0.0 11.0 5
243850 temperature3 08:53 17/02/2022 35.659653 139.67693 15.7 11.5 60.3 0.0 9.0 5
243849 temperature3 08:23 17/02/2022 35.65965 139.67702 15.7 11.0 56.2 0.0 8.0 5
243848 temperature3 07:37 17/02/2022 35.65949 139.67712 15.4 10.5 55.3 0.0 8.0 5
243847 temperature3 04:59 17/02/2022 35.660316 139.6772 15.8 10.6 57.9 0.0 8.0 5
243846 temperature3 04:29 17/02/2022 35.660267 139.67755 16.2 11.0 58.0 0.0 9.0 5
243845 temperature3 03:59 17/02/2022 35.659897 139.67722 16.2 11.5 57.9 0.0 9.0 5
243844 temperature3 03:29 17/02/2022 35.66012 139.67702 16.7 11.5 59.7 0.0 9.0 5
243843 temperature3 02:59 17/02/2022 35.659893 139.67719 16.7 11.5 57.9 0.0 8.0 5
243842 temperature3 02:29 17/02/2022 35.660065 139.67711 16.9 12.0 57.2 0.0 9.0 5
243841 temperature3 01:59 17/02/2022 35.659992 139.67728 17.2 12.0 58.3 0.0 7.0 5
243840 temperature3 01:29 17/02/2022 35.659916 139.67746 17.2 12.3 57.8 0.0 8.0 5
243839 temperature3 00:59 17/02/2022 35.659916 139.67746 17.7 12.5 57.9 0.0 8.0 5
243838 temperature3 00:29 17/02/2022 35.660046 139.6776 17.7 12.5 58.6 0.0 3.0 5
243837 temperature3 23:59 16/02/2022 35.660046 139.6776 18.1 12.5 60.0 0.0 8.0 5
243836 temperature3 23:30 16/02/2022 35.660046 139.67741 18.6 12.9 59.3 0.0 6.0 5
243835 temperature3 23:00 16/02/2022 35.66003 139.67714 19.1 13.7 59.6 0.0 10.0 5
243834 temperature3 22:30 16/02/2022 35.660007 139.67714 19.6 14.4 60.6 0.0 9.0 5
243833 temperature3 22:00 16/02/2022 35.659817 139.67708 19.6 14.5 59.9 0.0 8.0 5
243832 temperature3 21:30 16/02/2022 35.66001 139.67712 19.1 14.4 59.5 0.0 10.0 5
243831 temperature3 21:00 16/02/2022 35.66001 139.67712 19.5 14.4 58.1 0.0 9.0 5
243830 temperature3 20:30 16/02/2022 35.65999 139.6772 19.6 14.9 52.4 0.0 9.0 5
243829 temperature3 20:00 16/02/2022 35.659554 139.67715 19.3 14.4 58.1 0.0 6.0 5
243828 temperature3 19:30 16/02/2022 35.659668 139.67735 19.1 14.4 54.7 0.0 7.0 5
243827 temperature3 19:00 16/02/2022 35.659584 139.67717 18.6 14.4 53.4 0.0 6.0 5
243826 temperature3 18:30 16/02/2022 35.660107 139.67729 18.1 13.9 51.6 0.0 6.0 5
243825 temperature3 18:01 16/02/2022 35.660107 139.67729 17.2 13.4 50.3 0.0 8.0 5
243824 temperature3 17:30 16/02/2022 35.660194 139.67725 17.7 13.9 46.5 0.0 9.0 5
243823 temperature3 17:00 16/02/2022 35.66015 139.6772 17.7 14.9 37.7 0.0 10.0 5
243822 temperature3 16:30 16/02/2022 35.65981 139.67723 17.2 14.9 34.8 0.0 10.0 5
243821 temperature3 16:00 16/02/2022 35.65982 139.67715 17.7 15.4 37.3 0.0 9.0 5
243820 temperature3 15:31 16/02/2022 35.659924 139.67715 17.7 14.4 36.2 0.0 11.0 5
243819 temperature3 15:01 16/02/2022 35.660236 139.6772 18.1 14.9 37.6 0.0 9.0 5
243818 temperature3 14:31 16/02/2022 35.65996 139.67732 18.6 15.6 39.4 0.0 9.0 5
243817 temperature3 13:28 16/02/2022 35.66008 139.67696 18.3 15.9 38.7 0.0 10.0 5
243816 temperature3 12:26 16/02/2022 35.65994 139.67705 19.4 19.3 43.9 0.0 9.0 5
243815 temperature3 11:56 16/02/2022 35.660175 139.67725 20.1 21.3 48.3 0.0 9.0 5
243814 temperature3 11:26 16/02/2022 35.66031 139.67743 19.4 21.3 47.9 0.0 7.0 5
243813 temperature3 10:55 16/02/2022 35.6605 139.67734 18.1 20.3 64.9 0.0 7.0 5
243812 temperature3 10:25 16/02/2022 35.659878 139.67735 17.7 19.3 68.5 0.0 8.0 5
243811 temperature3 09:55 16/02/2022 35.659943 139.67728 16.6 16.4 49.8 0.0 9.0 5
243810 temperature3 09:25 16/02/2022 35.660095 139.67697 15.7 12.9 46.5 0.0 7.0 5
243809 temperature3 08:55 16/02/2022 35.660107 139.67714 15.2 12.0 42.8 0.0 8.0 5
243808 temperature3 08:26 16/02/2022 35.659786 139.67747 15.2 11.5 42.3 0.0 8.0 5
243807 temperature3 07:56 16/02/2022 35.660145 139.67732 14.7 11.0 42.1 0.0 6.0 5
243806 temperature3 07:25 16/02/2022 35.659943 139.67741 14.7 11.0 38.5 0.0 9.0 5
243805 temperature3 06:54 16/02/2022 35.65993 139.6769 14.7 10.9 40.1 0.0 8.0 5
243804 temperature3 06:24 16/02/2022 35.659973 139.67717 14.8 11.0 38.7 0.0 9.0 5
243803 temperature3 05:22 16/02/2022 35.66 139.67732 15.2 11.0 45.1 0.0 8.0 5
243802 temperature3 04:52 16/02/2022 35.660248 139.67693 15.2 11.1 45.1 0.0 8.0 5
243801 temperature3 04:22 16/02/2022 35.660107 139.67705 15.7 11.5 45.1 0.0 10.0 5
243800 temperature3 03:53 16/02/2022 35.66002 139.67717 15.7 11.5 43.8 0.0 7.0 5
243799 temperature3 03:23 16/02/2022 35.659973 139.67714 15.7 11.5 47.4 0.0 7.0 5
243798 temperature3 02:53 16/02/2022 35.66001 139.67717 16.2 12.0 46.5 0.0 7.0 5
243797 temperature3 02:23 16/02/2022 35.659866 139.67705 16.2 12.0 47.3 0.0 7.0 5
243796 temperature3 01:53 16/02/2022 35.659912 139.67705 16.3 12.2 48.7 0.0 8.0 5